sensor_id;sensor_type;location;lat;lon;timestamp;pressure;altitude;pressure_sealevel;temperature;humidity
72570;BME280;60594;50.204;8.844;2024-02-21T00:02:31;100861.47;;;7.52;100.00
72570;BME280;60594;50.204;8.844;2024-02-21T00:05:16;100861.09;;;7.29;100.00
72570;BME280;60594;50.204;8.844;2024-02-21T00:08:02;100863.38;;;7.19;100.00
72570;BME280;60594;50.204;8.844;2024-02-21T00:10:47;100867.06;;;7.17;100.00
72570;BME280;60594;50.204;8.844;2024-02-21T00:13:33;100850.66;;;7.10;100.00
72570;BME280;60594;50.204;8.844;2024-02-21T00:16:18;100855.75;;;6.97;100.00
72570;BME280;60594;50.204;8.844;2024-02-21T00:19:03;100851.50;;;6.95;100.00
72570;BME280;60594;50.204;8.844;2024-02-21T00:21:49;100846.59;;;6.87;100.00
72570;BME280;60594;50.204;8.844;2024-02-21T00:24:33;100858.56;;;6.94;100.00
72570;BME280;60594;50.204;8.844;2024-02-21T00:27:19;100860.13;;;6.98;100.00
72570;BME280;60594;50.204;8.844;2024-02-21T00:30:04;100857.75;;;6.94;100.00
72570;BME280;60594;50.204;8.844;2024-02-21T00:32:49;100844.22;;;6.98;100.00
72570;BME280;60594;50.204;8.844;2024-02-21T00:35:34;100839.19;;;6.94;100.00
72570;BME280;60594;50.204;8.844;2024-02-21T00:38:19;100830.47;;;6.92;100.00
72570;BME280;60594;50.204;8.844;2024-02-21T00:41:03;100826.28;;;6.88;100.00
72570;BME280;60594;50.204;8.844;2024-02-21T00:43:48;100823.03;;;6.98;100.00
72570;BME280;60594;50.204;8.844;2024-02-21T00:46:34;100820.72;;;6.92;100.00
72570;BME280;60594;50.204;8.844;2024-02-21T00:49:19;100817.47;;;6.87;100.00
72570;BME280;60594;50.204;8.844;2024-02-21T00:52:04;100804.47;;;6.98;100.00
72570;BME280;60594;50.204;8.844;2024-02-21T00:54:49;100792.78;;;6.87;100.00
72570;BME280;60594;50.204;8.844;2024-02-21T00:57:34;100787.81;;;6.81;100.00
72570;BME280;60594;50.204;8.844;2024-02-21T01:00:19;100781.84;;;6.77;100.00
72570;BME280;60594;50.204;8.844;2024-02-21T01:03:04;100764.41;;;6.73;100.00
72570;BME280;60594;50.204;8.844;2024-02-21T01:05:49;100779.63;;;6.85;100.00
72570;BME280;60594;50.204;8.844;2024-02-21T01:08:34;100784.69;;;6.90;100.00
72570;BME280;60594;50.204;8.844;2024-02-21T01:11:19;100794.06;;;6.80;100.00
72570;BME280;60594;50.204;8.844;2024-02-21T01:14:04;100792.78;;;6.87;100.00
72570;BME280;60594;50.204;8.844;2024-02-21T01:16:49;100806.44;;;6.95;100.00
72570;BME280;60594;50.204;8.844;2024-02-21T01:19:34;100807.38;;;7.09;100.00
72570;BME280;60594;50.204;8.844;2024-02-21T01:22:19;100812.09;;;7.04;100.00
72570;BME280;60594;50.204;8.844;2024-02-21T01:25:04;100805.09;;;7.03;100.00
72570;BME280;60594;50.204;8.844;2024-02-21T01:27:49;100796.97;;;7.07;100.00
72570;BME280;60594;50.204;8.844;2024-02-21T01:30:34;100812.00;;;7.22;100.00
72570;BME280;60594;50.204;8.844;2024-02-21T01:33:19;100797.31;;;7.16;100.00
72570;BME280;60594;50.204;8.844;2024-02-21T01:36:05;100794.94;;;7.41;100.00
72570;BME280;60594;50.204;8.844;2024-02-21T01:38:53;100788.81;;;7.41;100.00
72570;BME280;60594;50.204;8.844;2024-02-21T01:41:37;100778.38;;;7.38;100.00
72570;BME280;60594;50.204;8.844;2024-02-21T01:44:22;100774.03;;;7.37;100.00
72570;BME280;60594;50.204;8.844;2024-02-21T01:47:07;100772.97;;;7.39;100.00
72570;BME280;60594;50.204;8.844;2024-02-21T01:49:52;100771.03;;;7.27;100.00
72570;BME280;60594;50.204;8.844;2024-02-21T01:52:37;100770.25;;;7.25;100.00
72570;BME280;60594;50.204;8.844;2024-02-21T01:55:22;100757.59;;;7.30;100.00
72570;BME280;60594;50.204;8.844;2024-02-21T01:58:07;100762.19;;;7.42;100.00
72570;BME280;60594;50.204;8.844;2024-02-21T02:00:53;100769.78;;;7.48;100.00
72570;BME280;60594;50.204;8.844;2024-02-21T02:03:38;100763.91;;;7.43;100.00
72570;BME280;60594;50.204;8.844;2024-02-21T02:06:24;100761.19;;;7.29;100.00
72570;BME280;60594;50.204;8.844;2024-02-21T02:09:09;100763.09;;;7.27;100.00
72570;BME280;60594;50.204;8.844;2024-02-21T02:11:54;100752.19;;;7.32;100.00
72570;BME280;60594;50.204;8.844;2024-02-21T02:14:39;100757.50;;;7.32;100.00
72570;BME280;60594;50.204;8.844;2024-02-21T02:17:24;100749.75;;;7.29;100.00
72570;BME280;60594;50.204;8.844;2024-02-21T02:20:10;100758.91;;;7.23;100.00
72570;BME280;60594;50.204;8.844;2024-02-21T02:22:55;100752.28;;;7.30;100.00
72570;BME280;60594;50.204;8.844;2024-02-21T02:25:40;100746.47;;;7.39;100.00
72570;BME280;60594;50.204;8.844;2024-02-21T02:28:25;100747.81;;;7.46;100.00
72570;BME280;60594;50.204;8.844;2024-02-21T02:31:09;100736.44;;;7.44;100.00
72570;BME280;60594;50.204;8.844;2024-02-21T02:33:54;100729.13;;;7.34;100.00
72570;BME280;60594;50.204;8.844;2024-02-21T02:36:39;100720.47;;;7.30;100.00
72570;BME280;60594;50.204;8.844;2024-02-21T02:39:24;100726.38;;;7.35;100.00
72570;BME280;60594;50.204;8.844;2024-02-21T02:42:09;100719.34;;;7.34;100.00
72570;BME280;60594;50.204;8.844;2024-02-21T02:44:54;100708.13;;;7.15;100.00
72570;BME280;60594;50.204;8.844;2024-02-21T02:47:39;100706.50;;;7.13;100.00
72570;BME280;60594;50.204;8.844;2024-02-21T02:50:26;100696.38;;;7.19;100.00
72570;BME280;60594;50.204;8.844;2024-02-21T02:53:11;100698.28;;;7.17;100.00
72570;BME280;60594;50.204;8.844;2024-02-21T02:55:56;100691.16;;;7.03;100.00
72570;BME280;60594;50.204;8.844;2024-02-21T02:58:40;100692.06;;;7.02;100.00
72570;BME280;60594;50.204;8.844;2024-02-21T03:01:25;100689.94;;;7.09;100.00
72570;BME280;60594;50.204;8.844;2024-02-21T03:04:10;100693.88;;;7.02;100.00
72570;BME280;60594;50.204;8.844;2024-02-21T03:06:55;100690.19;;;7.04;100.00
72570;BME280;60594;50.204;8.844;2024-02-21T03:09:41;100684.31;;;6.99;100.00
72570;BME280;60594;50.204;8.844;2024-02-21T03:12:27;100681.22;;;7.07;100.00
72570;BME280;60594;50.204;8.844;2024-02-21T03:15:14;100691.72;;;7.08;100.00
72570;BME280;60594;50.204;8.844;2024-02-21T03:17:59;100674.97;;;7.08;100.00
72570;BME280;60594;50.204;8.844;2024-02-21T03:20:43;100673.00;;;7.12;100.00
72570;BME280;60594;50.204;8.844;2024-02-21T03:23:28;100671.66;;;7.04;100.00
72570;BME280;60594;50.204;8.844;2024-02-21T03:26:13;100665.84;;;6.98;100.00
72570;BME280;60594;50.204;8.844;2024-02-21T03:29:03;100656.69;;;7.03;100.00
72570;BME280;60594;50.204;8.844;2024-02-21T03:31:48;100654.72;;;7.07;100.00
72570;BME280;60594;50.204;8.844;2024-02-21T03:34:33;100647.06;;;7.17;100.00
72570;BME280;60594;50.204;8.844;2024-02-21T03:37:17;100653.41;;;7.14;100.00
72570;BME280;60594;50.204;8.844;2024-02-21T03:40:06;100651.66;;;7.29;100.00
72570;BME280;60594;50.204;8.844;2024-02-21T03:42:52;100645.78;;;7.24;100.00
72570;BME280;60594;50.204;8.844;2024-02-21T03:45:37;100637.16;;;7.20;100.00
72570;BME280;60594;50.204;8.844;2024-02-21T03:48:21;100628.81;;;7.26;100.00
72570;BME280;60594;50.204;8.844;2024-02-21T03:51:07;100637.28;;;7.03;100.00
72570;BME280;60594;50.204;8.844;2024-02-21T03:53:51;100635.59;;;7.02;100.00
72570;BME280;60594;50.204;8.844;2024-02-21T03:56:37;100628.06;;;6.94;100.00
72570;BME280;60594;50.204;8.844;2024-02-21T03:59:23;100618.59;;;6.90;100.00
72570;BME280;60594;50.204;8.844;2024-02-21T04:02:08;100621.25;;;6.90;100.00
72570;BME280;60594;50.204;8.844;2024-02-21T04:04:53;100627.50;;;6.89;100.00
72570;BME280;60594;50.204;8.844;2024-02-21T04:07:39;100632.34;;;6.97;100.00
72570;BME280;60594;50.204;8.844;2024-02-21T04:10:23;100627.50;;;6.89;100.00
72570;BME280;60594;50.204;8.844;2024-02-21T04:13:09;100620.25;;;7.07;100.00
72570;BME280;60594;50.204;8.844;2024-02-21T04:15:54;100623.00;;;7.05;100.00
72570;BME280;60594;50.204;8.844;2024-02-21T04:18:39;100616.56;;;6.95;100.00
72570;BME280;60594;50.204;8.844;2024-02-21T04:21:24;100625.50;;;6.93;100.00
72570;BME280;60594;50.204;8.844;2024-02-21T04:24:09;100625.34;;;6.96;100.00
72570;BME280;60594;50.204;8.844;2024-02-21T04:26:54;100621.06;;;6.93;100.00
72570;BME280;60594;50.204;8.844;2024-02-21T04:29:39;100602.53;;;6.93;100.00
72570;BME280;60594;50.204;8.844;2024-02-21T04:32:24;100604.44;;;7.05;100.00
72570;BME280;60594;50.204;8.844;2024-02-21T04:35:09;100583.63;;;7.13;100.00
72570;BME280;60594;50.204;8.844;2024-02-21T04:37:55;100579.16;;;7.00;100.00
72570;BME280;60594;50.204;8.844;2024-02-21T04:40:40;100575.22;;;7.07;100.00
72570;BME280;60594;50.204;8.844;2024-02-21T04:43:25;100579.94;;;7.02;100.00
72570;BME280;60594;50.204;8.844;2024-02-21T04:46:10;100580.34;;;7.10;100.00
72570;BME280;60594;50.204;8.844;2024-02-21T04:48:55;100589.50;;;7.04;100.00
72570;BME280;60594;50.204;8.844;2024-02-21T04:51:41;100586.84;;;7.04;100.00
72570;BME280;60594;50.204;8.844;2024-02-21T04:54:26;100586.13;;;7.17;100.00
72570;BME280;60594;50.204;8.844;2024-02-21T04:57:11;100586.41;;;7.12;100.00
72570;BME280;60594;50.204;8.844;2024-02-21T04:59:56;100587.34;;;7.11;100.00
72570;BME280;60594;50.204;8.844;2024-02-21T05:02:41;100579.78;;;7.19;100.00
72570;BME280;60594;50.204;8.844;2024-02-21T05:05:25;100574.28;;;7.22;100.00
72570;BME280;60594;50.204;8.844;2024-02-21T05:08:10;100566.63;;;7.32;100.00
72570;BME280;60594;50.204;8.844;2024-02-21T05:10:55;100562.84;;;7.22;100.00
72570;BME280;60594;50.204;8.844;2024-02-21T05:13:41;100559.69;;;7.15;100.00
72570;BME280;60594;50.204;8.844;2024-02-21T05:16:25;100568.91;;;7.24;100.00
72570;BME280;60594;50.204;8.844;2024-02-21T05:19:11;100569.50;;;7.29;100.00
72570;BME280;60594;50.204;8.844;2024-02-21T05:21:55;100575.91;;;7.25;100.00
72570;BME280;60594;50.204;8.844;2024-02-21T05:24:40;100583.50;;;7.31;100.00
72570;BME280;60594;50.204;8.844;2024-02-21T05:27:25;100582.78;;;6.99;100.00
72570;BME280;60594;50.204;8.844;2024-02-21T05:30:10;100584.56;;;6.98;100.00
72570;BME280;60594;50.204;8.844;2024-02-21T05:32:55;100579.16;;;7.00;100.00
72570;BME280;60594;50.204;8.844;2024-02-21T05:35:40;100586.00;;;7.04;100.00
72570;BME280;60594;50.204;8.844;2024-02-21T05:38:25;100586.59;;;7.09;100.00
72570;BME280;60594;50.204;8.844;2024-02-21T05:41:11;100594.25;;;6.99;100.00
72570;BME280;60594;50.204;8.844;2024-02-21T05:43:56;100590.28;;;7.07;100.00
72570;BME280;60594;50.204;8.844;2024-02-21T05:46:41;100595.38;;;7.09;100.00
72570;BME280;60594;50.204;8.844;2024-02-21T05:49:26;100593.97;;;7.18;100.00
72570;BME280;60594;50.204;8.844;2024-02-21T05:52:11;100595.38;;;7.09;100.00
72570;BME280;60594;50.204;8.844;2024-02-21T05:54:55;100585.91;;;7.05;100.00
72570;BME280;60594;50.204;8.844;2024-02-21T05:57:41;100570.66;;;6.95;100.00
72570;BME280;60594;50.204;8.844;2024-02-21T06:00:25;100568.28;;;6.90;100.00
72570;BME280;60594;50.204;8.844;2024-02-21T06:03:10;100561.13;;;6.77;100.00
72570;BME280;60594;50.204;8.844;2024-02-21T06:05:56;100546.63;;;6.68;100.00
72570;BME280;60594;50.204;8.844;2024-02-21T06:08:41;100543.25;;;6.66;100.00
72570;BME280;60594;50.204;8.844;2024-02-21T06:11:26;100548.22;;;6.57;100.00
72570;BME280;60594;50.204;8.844;2024-02-21T06:14:11;100533.97;;;6.44;100.00
72570;BME280;60594;50.204;8.844;2024-02-21T06:16:55;100529.63;;;6.43;100.00
72570;BME280;60594;50.204;8.844;2024-02-21T06:19:42;100523.84;;;6.36;100.00
72570;BME280;60594;50.204;8.844;2024-02-21T06:22:27;100516.66;;;6.38;100.00
72570;BME280;60594;50.204;8.844;2024-02-21T06:25:12;100514.34;;;6.32;100.00
72570;BME280;60594;50.204;8.844;2024-02-21T06:27:58;100523.75;;;6.38;100.00
72570;BME280;60594;50.204;8.844;2024-02-21T06:30:43;100517.78;;;6.34;100.00
72570;BME280;60594;50.204;8.844;2024-02-21T06:33:28;100517.44;;;6.40;100.00
72570;BME280;60594;50.204;8.844;2024-02-21T06:36:13;100525.00;;;6.46;100.00
72570;BME280;60594;50.204;8.844;2024-02-21T06:38:58;100527.66;;;6.46;100.00
72570;BME280;60594;50.204;8.844;2024-02-21T06:41:44;100528.94;;;6.39;100.00
72570;BME280;60594;50.204;8.844;2024-02-21T06:44:29;100525.81;;;6.33;100.00
72570;BME280;60594;50.204;8.844;2024-02-21T06:47:14;100521.38;;;6.33;100.00
72570;BME280;60594;50.204;8.844;2024-02-21T06:49:58;100508.63;;;6.40;100.00
72570;BME280;60594;50.204;8.844;2024-02-21T06:52:43;100506.56;;;6.45;100.00
72570;BME280;60594;50.204;8.844;2024-02-21T06:55:28;100506.78;;;6.42;100.00
72570;BME280;60594;50.204;8.844;2024-02-21T06:58:13;100509.75;;;6.36;100.00
72570;BME280;60594;50.204;8.844;2024-02-21T07:01:00;100520.50;;;6.33;100.00
72570;BME280;60594;50.204;8.844;2024-02-21T07:03:45;100512.81;;;6.44;100.00
72570;BME280;60594;50.204;8.844;2024-02-21T07:06:30;100519.44;;;6.51;100.00
72570;BME280;60594;50.204;8.844;2024-02-21T07:09:16;100525.09;;;6.45;100.00
72570;BME280;60594;50.204;8.844;2024-02-21T07:12:01;100528.44;;;6.48;100.00
72570;BME280;60594;50.204;8.844;2024-02-21T07:14:46;100530.69;;;6.40;100.00
72570;BME280;60594;50.204;8.844;2024-02-21T07:17:31;100522.41;;;6.31;100.00
72570;BME280;60594;50.204;8.844;2024-02-21T07:20:16;100519.31;;;6.38;100.00
72570;BME280;60594;50.204;8.844;2024-02-21T07:23:01;100520.19;;;6.39;100.00
72570;BME280;60594;50.204;8.844;2024-02-21T07:25:46;100514.16;;;6.51;100.00
72570;BME280;60594;50.204;8.844;2024-02-21T07:28:31;100503.22;;;6.57;100.00
72570;BME280;60594;50.204;8.844;2024-02-21T07:31:16;100498.34;;;6.49;100.00
72570;BME280;60594;50.204;8.844;2024-02-21T07:34:01;100515.69;;;6.55;100.00
72570;BME280;60594;50.204;8.844;2024-02-21T07:36:46;100519.03;;;6.58;100.00
72570;BME280;60594;50.204;8.844;2024-02-21T07:39:31;100522.81;;;6.68;100.00
72570;BME280;60594;50.204;8.844;2024-02-21T07:42:16;100513.81;;;6.71;100.00
72570;BME280;60594;50.204;8.844;2024-02-21T07:45:00;100516.97;;;6.91;100.00
72570;BME280;60594;50.204;8.844;2024-02-21T07:47:46;100515.00;;;6.95;100.00
72570;BME280;60594;50.204;8.844;2024-02-21T07:50:31;100505.94;;;6.99;100.00
72570;BME280;60594;50.204;8.844;2024-02-21T07:53:16;100518.63;;;7.08;100.00
72570;BME280;60594;50.204;8.844;2024-02-21T07:56:01;100520.34;;;7.09;100.00
72570;BME280;60594;50.204;8.844;2024-02-21T07:58:46;100517.97;;;7.19;100.00
72570;BME280;60594;50.204;8.844;2024-02-21T08:01:30;100515.06;;;7.23;100.00
72570;BME280;60594;50.204;8.844;2024-02-21T08:04:16;100524.44;;;7.29;100.00
72570;BME280;60594;50.204;8.844;2024-02-21T08:07:00;100512.28;;;7.25;100.00
72570;BME280;60594;50.204;8.844;2024-02-21T08:09:45;100511.63;;;7.35;100.00
72570;BME280;60594;50.204;8.844;2024-02-21T08:12:30;100522.25;;;7.35;100.00
72570;BME280;60594;50.204;8.844;2024-02-21T08:15:15;100512.19;;;7.40;100.00
72570;BME280;60594;50.204;8.844;2024-02-21T08:18:00;100511.06;;;7.44;100.00
72570;BME280;60594;50.204;8.844;2024-02-21T08:20:46;100497.34;;;7.52;100.00
72570;BME280;60594;50.204;8.844;2024-02-21T08:23:32;100495.50;;;7.52;100.00
72570;BME280;60594;50.204;8.844;2024-02-21T08:26:17;100503.19;;;7.43;100.00
72570;BME280;60594;50.204;8.844;2024-02-21T08:29:02;100489.19;;;7.41;100.00
72570;BME280;60594;50.204;8.844;2024-02-21T08:31:47;100478.97;;;7.49;100.00
72570;BME280;60594;50.204;8.844;2024-02-21T08:34:32;100487.56;;;7.52;100.00
72570;BME280;60594;50.204;8.844;2024-02-21T08:37:19;100484.53;;;7.58;100.00
72570;BME280;60594;50.204;8.844;2024-02-21T08:40:03;100481.88;;;7.58;100.00
72570;BME280;60594;50.204;8.844;2024-02-21T08:42:53;100478.59;;;7.55;100.00
72570;BME280;60594;50.204;8.844;2024-02-21T08:45:38;100481.88;;;7.58;100.00
72570;BME280;60594;50.204;8.844;2024-02-21T08:48:24;100486.53;;;7.55;100.00
72570;BME280;60594;50.204;8.844;2024-02-21T08:51:10;100482.84;;;7.43;100.00
72570;BME280;60594;50.204;8.844;2024-02-21T08:53:55;100476.41;;;7.47;100.00
72570;BME280;60594;50.204;8.844;2024-02-21T08:56:40;100470.63;;;7.41;100.00
72570;BME280;60594;50.204;8.844;2024-02-21T08:59:26;100472.78;;;7.48;100.00
72570;BME280;60594;50.204;8.844;2024-02-21T09:02:11;100467.00;;;7.56;100.00
72570;BME280;60594;50.204;8.844;2024-02-21T09:04:56;100457.25;;;7.56;100.00
72570;BME280;60594;50.204;8.844;2024-02-21T09:07:41;100447.22;;;7.61;100.00
72570;BME280;60594;50.204;8.844;2024-02-21T09:10:26;100443.50;;;7.64;100.00
72570;BME280;60594;50.204;8.844;2024-02-21T09:13:11;100434.00;;;7.74;100.00
72570;BME280;60594;50.204;8.844;2024-02-21T09:15:56;100435.06;;;7.71;100.00
72570;BME280;60594;50.204;8.844;2024-02-21T09:18:41;100437.91;;;7.68;100.00
72570;BME280;60594;50.204;8.844;2024-02-21T09:21:27;100434.28;;;7.69;100.00
72570;BME280;60594;50.204;8.844;2024-02-21T09:24:12;100432.03;;;7.63;99.72
72570;BME280;60594;50.204;8.844;2024-02-21T09:26:58;100420.19;;;7.69;99.25
72570;BME280;60594;50.204;8.844;2024-02-21T09:29:42;100416.03;;;7.65;100.00
72570;BME280;60594;50.204;8.844;2024-02-21T09:32:27;100420.06;;;7.70;99.38
72570;BME280;60594;50.204;8.844;2024-02-21T09:35:12;100420.94;;;7.71;100.00
72570;BME280;60594;50.204;8.844;2024-02-21T09:37:57;100418.78;;;7.63;99.49
72570;BME280;60594;50.204;8.844;2024-02-21T09:40:42;100417.78;;;7.78;98.70
72570;BME280;60594;50.204;8.844;2024-02-21T09:43:28;100417.19;;;7.87;98.23
72570;BME280;60594;50.204;8.844;2024-02-21T09:46:16;100413.56;;;7.88;98.12
72570;BME280;60594;50.204;8.844;2024-02-21T09:49:30;100422.44;;;8.01;96.78
72570;BME280;60594;50.204;8.844;2024-02-21T09:52:16;100407.50;;;8.13;95.51
72570;BME280;60594;50.204;8.844;2024-02-21T09:55:02;100407.56;;;8.38;94.96
72570;BME280;60594;50.204;8.844;2024-02-21T09:57:49;100401.53;;;8.36;93.47
72570;BME280;60594;50.204;8.844;2024-02-21T10:00:44;100403.56;;;8.45;92.14
72570;BME280;60594;50.204;8.844;2024-02-21T10:03:29;100401.75;;;8.33;93.25
72570;BME280;60594;50.204;8.844;2024-02-21T10:06:14;100410.66;;;8.44;93.35
72570;BME280;60594;50.204;8.844;2024-02-21T10:08:59;100410.88;;;8.66;91.95
72570;BME280;60594;50.204;8.844;2024-02-21T10:11:44;100395.06;;;8.52;91.47
72570;BME280;60594;50.204;8.844;2024-02-21T10:14:29;100393.03;;;8.43;92.43
72570;BME280;60594;50.204;8.844;2024-02-21T10:17:17;100394.94;;;8.54;92.04
72570;BME280;60594;50.204;8.844;2024-02-21T10:20:12;100391.44;;;8.53;92.95
72570;BME280;60594;50.204;8.844;2024-02-21T10:23:05;100388.91;;;8.77;92.51
72570;BME280;60594;50.204;8.844;2024-02-21T10:25:53;100372.19;;;8.87;91.12
72570;BME280;60594;50.204;8.844;2024-02-21T10:28:38;100374.84;;;8.87;90.62
72570;BME280;60594;50.204;8.844;2024-02-21T10:31:27;100364.88;;;8.78;91.92
72570;BME280;60594;50.204;8.844;2024-02-21T10:34:16;100352.34;;;8.80;91.95
72570;BME280;60594;50.204;8.844;2024-02-21T10:37:05;100349.25;;;8.86;90.48
72570;BME280;60594;50.204;8.844;2024-02-21T10:39:50;100343.72;;;8.89;89.84
72570;BME280;60594;50.204;8.844;2024-02-21T10:42:37;100339.81;;;8.82;90.27
72570;BME280;60594;50.204;8.844;2024-02-21T10:45:58;100334.03;;;8.76;91.58
72570;BME280;60594;50.204;8.844;2024-02-21T10:48:42;100331.81;;;8.82;91.50
72570;BME280;60594;50.204;8.844;2024-02-21T10:51:33;100340.13;;;8.53;91.74
72570;BME280;60594;50.204;8.844;2024-02-21T10:57:26;100330.34;;;8.66;91.42
72570;BME280;60594;50.204;8.844;2024-02-21T11:00:14;100319.28;;;8.72;93.38
72570;BME280;60594;50.204;8.844;2024-02-21T11:03:03;100312.78;;;8.76;90.38
72570;BME280;60594;50.204;8.844;2024-02-21T11:05:49;100317.88;;;8.91;90.62
72570;BME280;60594;50.204;8.844;2024-02-21T11:08:34;100319.25;;;8.97;89.75
72570;BME280;60594;50.204;8.844;2024-02-21T11:11:19;100319.66;;;8.91;88.99
72570;BME280;60594;50.204;8.844;2024-02-21T11:14:10;100307.81;;;8.84;89.32
72570;BME280;60594;50.204;8.844;2024-02-21T11:16:55;100301.53;;;8.72;89.37
72570;BME280;60594;50.204;8.844;2024-02-21T11:19:43;100294.34;;;8.49;90.04
72570;BME280;60594;50.204;8.844;2024-02-21T11:22:28;100275.97;;;8.59;90.98
72570;BME280;60594;50.204;8.844;2024-02-21T11:25:21;100280.59;;;8.68;90.52
72570;BME280;60594;50.204;8.844;2024-02-21T11:28:06;100274.56;;;8.66;90.03
72570;BME280;60594;50.204;8.844;2024-02-21T11:30:52;100265.31;;;8.71;90.32
72570;BME280;60594;50.204;8.844;2024-02-21T11:33:42;100261.09;;;8.92;90.26
72570;BME280;60594;50.204;8.844;2024-02-21T11:36:28;100263.09;;;9.01;88.98
72570;BME280;60594;50.204;8.844;2024-02-21T11:39:24;100247.53;;;9.08;89.92
72570;BME280;60594;50.204;8.844;2024-02-21T11:42:09;100250.09;;;9.33;89.07
72570;BME280;60594;50.204;8.844;2024-02-21T11:45:00;100230.56;;;9.21;88.51
72570;BME280;60594;50.204;8.844;2024-02-21T11:47:45;100230.41;;;9.35;88.49
72570;BME280;60594;50.204;8.844;2024-02-21T11:50:30;100227.03;;;9.33;88.89
72570;BME280;60594;50.204;8.844;2024-02-21T11:53:15;100207.31;;;9.36;88.52
72570;BME280;60594;50.204;8.844;2024-02-21T11:56:00;100208.84;;;9.27;87.49
72570;BME280;60594;50.204;8.844;2024-02-21T11:58:48;100203.81;;;9.12;89.29
72570;BME280;60594;50.204;8.844;2024-02-21T12:01:33;100205.97;;;9.07;89.82
72570;BME280;60594;50.204;8.844;2024-02-21T12:04:19;100196.22;;;9.18;91.38
72570;BME280;60594;50.204;8.844;2024-02-21T12:07:05;100194.44;;;9.19;88.77
72570;BME280;60594;50.204;8.844;2024-02-21T12:09:51;100186.78;;;9.14;89.86
72570;BME280;60594;50.204;8.844;2024-02-21T12:12:36;100182.03;;;9.30;89.76
72570;BME280;60594;50.204;8.844;2024-02-21T12:15:22;100173.09;;;9.31;91.30
72570;BME280;60594;50.204;8.844;2024-02-21T12:18:07;100171.88;;;9.35;88.79
72570;BME280;60594;50.204;8.844;2024-02-21T12:20:52;100161.31;;;9.23;87.87
72570;BME280;60594;50.204;8.844;2024-02-21T12:23:38;100152.78;;;9.30;90.13
72570;BME280;60594;50.204;8.844;2024-02-21T12:26:24;100147.81;;;9.26;89.30
72570;BME280;60594;50.204;8.844;2024-02-21T12:29:10;100142.06;;;9.08;89.24
72570;BME280;60594;50.204;8.844;2024-02-21T12:31:55;100145.81;;;9.06;88.71
72570;BME280;60594;50.204;8.844;2024-02-21T12:34:40;100135.78;;;9.09;89.51
72570;BME280;60594;50.204;8.844;2024-02-21T12:37:25;100133.50;;;9.16;89.72
72570;BME280;60594;50.204;8.844;2024-02-21T12:40:10;100122.97;;;9.14;89.44
72570;BME280;60594;50.204;8.844;2024-02-21T12:42:56;100111.78;;;9.22;89.92
72570;BME280;60594;50.204;8.844;2024-02-21T12:45:41;100109.16;;;9.33;90.71
72570;BME280;60594;50.204;8.844;2024-02-21T12:48:26;100109.41;;;9.41;89.34
72570;BME280;60594;50.204;8.844;2024-02-21T12:51:11;100096.00;;;9.42;88.33
72570;BME280;60594;50.204;8.844;2024-02-21T12:53:56;100095.03;;;9.54;88.94
72570;BME280;60594;50.204;8.844;2024-02-21T12:56:41;100092.25;;;9.45;87.58
72570;BME280;60594;50.204;8.844;2024-02-21T12:59:27;100097.91;;;9.40;87.85
72570;BME280;60594;50.204;8.844;2024-02-21T13:02:13;100094.91;;;9.45;87.26
72570;BME280;60594;50.204;8.844;2024-02-21T13:04:58;100101.09;;;9.56;87.35
72570;BME280;60594;50.204;8.844;2024-02-21T13:07:44;100086.56;;;9.49;87.27
72570;BME280;60594;50.204;8.844;2024-02-21T13:10:29;100084.59;;;9.40;87.75
72570;BME280;60594;50.204;8.844;2024-02-21T13:13:14;100082.22;;;9.48;88.94
72570;BME280;60594;50.204;8.844;2024-02-21T13:16:00;100083.56;;;9.54;86.63
72570;BME280;60594;50.204;8.844;2024-02-21T13:18:44;100067.22;;;9.47;87.02
72570;BME280;60594;50.204;8.844;2024-02-21T13:21:32;100059.50;;;9.44;88.68
72570;BME280;60594;50.204;8.844;2024-02-21T13:24:17;100048.34;;;9.50;87.74
72570;BME280;60594;50.204;8.844;2024-02-21T13:27:02;100051.38;;;9.46;88.06
72570;BME280;60594;50.204;8.844;2024-02-21T13:29:47;100043.78;;;9.52;88.00
72570;BME280;60594;50.204;8.844;2024-02-21T13:32:33;100019.97;;;9.51;87.92
72570;BME280;60594;50.204;8.844;2024-02-21T13:35:17;100024.31;;;9.52;89.09
72570;BME280;60594;50.204;8.844;2024-02-21T13:38:03;100006.88;;;9.59;89.78
72570;BME280;60594;50.204;8.844;2024-02-21T13:40:48;100009.53;;;9.70;88.73
72570;BME280;60594;50.204;8.844;2024-02-21T13:43:33;100005.56;;;9.75;87.66
72570;BME280;60594;50.204;8.844;2024-02-21T13:46:18;100002.88;;;9.86;88.16
72570;BME280;60594;50.204;8.844;2024-02-21T13:49:05;99997.09;;;9.70;85.88
72570;BME280;60594;50.204;8.844;2024-02-21T13:51:51;99983.78;;;9.70;85.17
72570;BME280;60594;50.204;8.844;2024-02-21T13:54:36;99980.97;;;9.72;84.46
72570;BME280;60594;50.204;8.844;2024-02-21T13:57:21;99971.94;;;9.63;85.66
72570;BME280;60594;50.204;8.844;2024-02-21T14:00:07;99970.50;;;9.70;85.54
72570;BME280;60594;50.204;8.844;2024-02-21T14:02:57;99960.41;;;9.85;85.89
72570;BME280;60594;50.204;8.844;2024-02-21T14:05:44;99959.06;;;9.90;87.52
72570;BME280;60594;50.204;8.844;2024-02-21T14:08:29;99952.53;;;9.94;86.33
72570;BME280;60594;50.204;8.844;2024-02-21T14:11:14;99937.31;;;9.85;86.18
72570;BME280;60594;50.204;8.844;2024-02-21T14:13:59;99937.28;;;9.96;85.31
72570;BME280;60594;50.204;8.844;2024-02-21T14:16:44;99922.63;;;10.02;84.93
72570;BME280;60594;50.204;8.844;2024-02-21T14:19:28;99914.91;;;9.88;86.38
72570;BME280;60594;50.204;8.844;2024-02-21T14:22:14;99911.53;;;9.86;86.06
72570;BME280;60594;50.204;8.844;2024-02-21T14:24:58;99907.19;;;9.85;86.12
72570;BME280;60594;50.204;8.844;2024-02-21T14:27:43;99901.13;;;9.83;84.60
72570;BME280;60594;50.204;8.844;2024-02-21T14:30:29;99891.94;;;9.87;85.23
72570;BME280;60594;50.204;8.844;2024-02-21T14:33:14;99887.06;;;9.92;84.93
72570;BME280;60594;50.204;8.844;2024-02-21T14:35:59;99881.38;;;9.96;83.61